sensor_id;sensor_type;location;lat;lon;timestamp;pressure;altitude;pressure_sealevel;temperature;humidity
66385;BME280;53426;55.872;37.462;2023-01-15T00:01:00;99844.63;;;-1.56;73.85
66385;BME280;53426;55.872;37.462;2023-01-15T00:03:26;99850.47;;;-1.48;74.04
66385;BME280;53426;55.872;37.462;2023-01-15T00:05:53;99839.22;;;-1.48;73.60
66385;BME280;53426;55.872;37.462;2023-01-15T00:08:18;99832.66;;;-1.60;73.38
66385;BME280;53426;55.872;37.462;2023-01-15T00:10:44;99849.16;;;-1.62;73.93
66385;BME280;53426;55.872;37.462;2023-01-15T00:13:10;99846.47;;;-1.59;73.94
66385;BME280;53426;55.872;37.462;2023-01-15T00:15:37;99851.59;;;-1.58;73.68
66385;BME280;53426;55.872;37.462;2023-01-15T00:18:03;99857.03;;;-1.65;73.74
66385;BME280;53426;55.872;37.462;2023-01-15T00:20:29;99854.19;;;-1.58;74.10
66385;BME280;53426;55.872;37.462;2023-01-15T00:22:55;99836.31;;;-1.67;74.24
66385;BME280;53426;55.872;37.462;2023-01-15T00:25:21;99839.78;;;-1.68;74.22
66385;BME280;53426;55.872;37.462;2023-01-15T00:28:05;99838.72;;;-1.61;74.08
66385;BME280;53426;55.872;37.462;2023-01-15T00:30:31;99843.91;;;-1.61;74.04
66385;BME280;53426;55.872;37.462;2023-01-15T00:32:58;99843.06;;;-1.61;74.13
66385;BME280;53426;55.872;37.462;2023-01-15T00:35:24;99828.34;;;-1.61;74.16
66385;BME280;53426;55.872;37.462;2023-01-15T00:37:50;99843.91;;;-1.61;74.05
66385;BME280;53426;55.872;37.462;2023-01-15T00:40:21;99818.06;;;-1.64;73.58
66385;BME280;53426;55.872;37.462;2023-01-15T00:42:47;99822.31;;;-1.61;73.91
66385;BME280;53426;55.872;37.462;2023-01-15T00:45:14;99820.44;;;-1.58;74.05
66385;BME280;53426;55.872;37.462;2023-01-15T00:47:42;99816.19;;;-1.59;73.87
66385;BME280;53426;55.872;37.462;2023-01-15T00:50:11;99823.19;;;-1.62;73.97
66385;BME280;53426;55.872;37.462;2023-01-15T00:52:38;99811.91;;;-1.61;73.86
66385;BME280;53426;55.872;37.462;2023-01-15T00:55:05;99795.59;;;-1.65;74.03
66385;BME280;53426;55.872;37.462;2023-01-15T00:57:31;99798.38;;;-1.71;73.77
66385;BME280;53426;55.872;37.462;2023-01-15T01:00:07;99789.63;;;-1.69;74.01
66385;BME280;53426;55.872;37.462;2023-01-15T01:02:42;99786.28;;;-1.72;74.24
66385;BME280;53426;55.872;37.462;2023-01-15T01:05:16;99767.19;;;-1.99;73.74
66385;BME280;53426;55.872;37.462;2023-01-15T01:07:43;99811.25;;;-1.68;73.82
66385;BME280;53426;55.872;37.462;2023-01-15T01:10:09;99803.63;;;-1.74;73.72
66385;BME280;53426;55.872;37.462;2023-01-15T01:12:35;99812.03;;;-1.64;73.73
66385;BME280;53426;55.872;37.462;2023-01-15T01:15:02;99810.22;;;-1.62;73.58
66385;BME280;53426;55.872;37.462;2023-01-15T01:17:31;99808.50;;;-1.63;74.00
66385;BME280;53426;55.872;37.462;2023-01-15T01:19:58;99823.00;;;-1.56;73.67
66385;BME280;53426;55.872;37.462;2023-01-15T01:22:29;99808.28;;;-1.56;73.54
66385;BME280;53426;55.872;37.462;2023-01-15T01:24:56;99789.50;;;-1.64;73.79
66385;BME280;53426;55.872;37.462;2023-01-15T01:27:22;99795.97;;;-1.49;73.44
66385;BME280;53426;55.872;37.462;2023-01-15T01:29:48;99793.69;;;-1.60;73.77
66385;BME280;53426;55.872;37.462;2023-01-15T01:32:14;99801.47;;;-1.58;73.35
66385;BME280;53426;55.872;37.462;2023-01-15T01:34:42;99797.22;;;-1.62;73.52
66385;BME280;53426;55.872;37.462;2023-01-15T01:37:08;99801.38;;;-1.57;73.82
66385;BME280;53426;55.872;37.462;2023-01-15T01:39:37;99793.56;;;-1.55;73.66
66385;BME280;53426;55.872;37.462;2023-01-15T01:42:11;99805.50;;;-1.50;73.87
66385;BME280;53426;55.872;37.462;2023-01-15T01:47:32;99802.09;;;-1.52;73.46
66385;BME280;53426;55.872;37.462;2023-01-15T01:50:08;99809.00;;;-1.51;73.20
66385;BME280;53426;55.872;37.462;2023-01-15T01:52:43;99806.38;;;-1.51;73.58
66385;BME280;53426;55.872;37.462;2023-01-15T01:55:13;99808.25;;;-1.54;73.77
66385;BME280;53426;55.872;37.462;2023-01-15T01:57:41;99776.53;;;-1.64;73.85
66385;BME280;53426;55.872;37.462;2023-01-15T02:00:09;99802.28;;;-1.58;74.02
66385;BME280;53426;55.872;37.462;2023-01-15T02:02:42;99801.19;;;-1.51;73.42
66385;BME280;53426;55.872;37.462;2023-01-15T02:05:13;99797.03;;;-1.56;73.42
66385;BME280;53426;55.872;37.462;2023-01-15T02:07:40;99791.81;;;-1.55;73.51
66385;BME280;53426;55.872;37.462;2023-01-15T02:10:15;99778.19;;;-1.63;73.64
66385;BME280;53426;55.872;37.462;2023-01-15T02:12:49;99789.28;;;-1.58;73.84
66385;BME280;53426;55.872;37.462;2023-01-15T02:15:27;99786.91;;;-1.64;73.84
66385;BME280;53426;55.872;37.462;2023-01-15T02:29:03;99761.22;;;-1.73;73.57
66385;BME280;53426;55.872;37.462;2023-01-15T02:31:36;99774.00;;;-1.67;73.70
66385;BME280;53426;55.872;37.462;2023-01-15T02:34:11;99766.88;;;-1.60;73.39
66385;BME280;53426;55.872;37.462;2023-01-15T02:36:42;99791.72;;;-1.52;73.43
66385;BME280;53426;55.872;37.462;2023-01-15T02:39:19;99793.41;;;-1.51;73.43
66385;BME280;53426;55.872;37.462;2023-01-15T02:41:50;99792.63;;;-1.53;73.73
66385;BME280;53426;55.872;37.462;2023-01-15T02:44:21;99769.53;;;-1.62;73.85
66385;BME280;53426;55.872;37.462;2023-01-15T02:46:54;99782.75;;;-1.70;73.69
66385;BME280;53426;55.872;37.462;2023-01-15T02:49:23;99780.97;;;-1.69;74.08
66385;BME280;53426;55.872;37.462;2023-01-15T02:54:25;99790.25;;;-1.60;73.81
66385;BME280;53426;55.872;37.462;2023-01-15T02:56:58;99782.53;;;-1.63;73.90
66385;BME280;53426;55.872;37.462;2023-01-15T02:59:34;99767.22;;;-1.71;74.31
66385;BME280;53426;55.872;37.462;2023-01-15T03:02:05;99783.03;;;-1.51;73.96
66385;BME280;53426;55.872;37.462;2023-01-15T03:10:14;99803.91;;;-1.54;74.00
66385;BME280;53426;55.872;37.462;2023-01-15T03:12:52;99793.59;;;-1.57;74.13
66385;BME280;53426;55.872;37.462;2023-01-15T03:16:01;99781.63;;;-1.61;73.64
66385;BME280;53426;55.872;37.462;2023-01-15T03:18:58;99793.69;;;-1.60;74.04
66385;BME280;53426;55.872;37.462;2023-01-15T03:21:34;99786.91;;;-1.64;73.73
66385;BME280;53426;55.872;37.462;2023-01-15T03:28:35;99778.91;;;-1.58;73.84
66385;BME280;53426;55.872;37.462;2023-01-15T03:31:03;99785.28;;;-1.68;74.06
66385;BME280;53426;55.872;37.462;2023-01-15T03:33:29;99802.50;;;-1.64;74.23
66385;BME280;53426;55.872;37.462;2023-01-15T03:36:12;99736.03;;;-1.97;74.44
66385;BME280;53426;55.872;37.462;2023-01-15T03:38:54;99802.28;;;-1.58;74.17
66385;BME280;53426;55.872;37.462;2023-01-15T03:42:18;99792.69;;;-1.56;74.16
66385;BME280;53426;55.872;37.462;2023-01-15T03:45:19;99795.13;;;-1.50;74.12
66385;BME280;53426;55.872;37.462;2023-01-15T03:48:03;99797.00;;;-1.55;74.54
66385;BME280;53426;55.872;37.462;2023-01-15T03:50:41;99809.47;;;-1.66;74.61
66385;BME280;53426;55.872;37.462;2023-01-15T03:53:16;99794.88;;;-1.70;75.50
66385;BME280;53426;55.872;37.462;2023-01-15T03:55:58;99791.63;;;-1.77;75.62
66385;BME280;53426;55.872;37.462;2023-01-15T04:01:15;99796.69;;;-1.74;76.47
66385;BME280;53426;55.872;37.462;2023-01-15T04:03:43;99793.31;;;-1.76;76.66
66385;BME280;53426;55.872;37.462;2023-01-15T04:06:11;99799.63;;;-1.84;77.03
66385;BME280;53426;55.872;37.462;2023-01-15T04:08:39;99805.53;;;-1.79;77.32
66385;BME280;53426;55.872;37.462;2023-01-15T04:11:07;99792.81;;;-1.88;77.45
66385;BME280;53426;55.872;37.462;2023-01-15T04:13:41;99794.44;;;-1.84;77.70
66385;BME280;53426;55.872;37.462;2023-01-15T04:16:22;99798.06;;;-1.90;77.75
66385;BME280;53426;55.872;37.462;2023-01-15T04:18:49;99781.75;;;-1.93;78.00
66385;BME280;53426;55.872;37.462;2023-01-15T04:21:16;99805.84;;;-1.90;77.65
66385;BME280;53426;55.872;37.462;2023-01-15T04:23:42;99781.09;;;-2.01;78.36
66385;BME280;53426;55.872;37.462;2023-01-15T04:26:08;99800.66;;;-1.90;78.08
66385;BME280;53426;55.872;37.462;2023-01-15T04:28:33;99797.91;;;-1.85;77.90
66385;BME280;53426;55.872;37.462;2023-01-15T04:30:59;99801.53;;;-1.91;78.08
66385;BME280;53426;55.872;37.462;2023-01-15T04:33:28;99796.50;;;-1.95;78.54
66385;BME280;53426;55.872;37.462;2023-01-15T04:36:29;99807.38;;;-1.83;78.45
66385;BME280;53426;55.872;37.462;2023-01-15T04:39:34;99798.47;;;-2.03;78.48
66385;BME280;53426;55.872;37.462;2023-01-15T04:42:00;99823.97;;;-1.88;78.81
66385;BME280;53426;55.872;37.462;2023-01-15T04:44:44;99803.97;;;-1.85;78.89
66385;BME280;53426;55.872;37.462;2023-01-15T04:47:10;99805.69;;;-1.85;78.87
66385;BME280;53426;55.872;37.462;2023-01-15T04:49:36;99804.81;;;-1.84;78.54
66385;BME280;53426;55.872;37.462;2023-01-15T04:52:02;99795.47;;;-1.90;78.82
66385;BME280;53426;55.872;37.462;2023-01-15T04:54:28;99799.00;;;-1.92;79.05
66385;BME280;53426;55.872;37.462;2023-01-15T04:56:54;99800.63;;;-1.88;79.20
66385;BME280;53426;55.872;37.462;2023-01-15T04:59:24;99789.34;;;-1.87;79.21
66385;BME280;53426;55.872;37.462;2023-01-15T05:01:50;99791.13;;;-1.89;79.24
66385;BME280;53426;55.872;37.462;2023-01-15T05:04:17;99788.00;;;-2.00;79.37
66385;BME280;53426;55.872;37.462;2023-01-15T05:06:44;99785.25;;;-1.96;79.44
66385;BME280;53426;55.872;37.462;2023-01-15T05:09:11;99787.13;;;-2.01;79.70
66385;BME280;53426;55.872;37.462;2023-01-15T05:11:39;99782.72;;;-1.97;79.36
66385;BME280;53426;55.872;37.462;2023-01-15T05:14:05;99789.59;;;-1.96;79.60
66385;BME280;53426;55.872;37.462;2023-01-15T05:16:33;99781.88;;;-1.98;79.12
66385;BME280;53426;55.872;37.462;2023-01-15T05:19:02;99765.63;;;-2.04;79.18
66385;BME280;53426;55.872;37.462;2023-01-15T05:21:32;99777.44;;;-1.94;79.03
66385;BME280;53426;55.872;37.462;2023-01-15T05:24:05;99766.25;;;-1.96;79.08
66385;BME280;53426;55.872;37.462;2023-01-15T05:26:58;99784.94;;;-1.85;78.77
66385;BME280;53426;55.872;37.462;2023-01-15T05:29:24;99766.25;;;-1.96;78.99
66385;BME280;53426;55.872;37.462;2023-01-15T05:35:53;99757.13;;;-2.09;79.13
66385;BME280;53426;55.872;37.462;2023-01-15T05:38:18;99767.38;;;-2.05;79.01
66385;BME280;53426;55.872;37.462;2023-01-15T05:40:44;99768.97;;;-2.01;78.98
66385;BME280;53426;55.872;37.462;2023-01-15T05:43:10;99786.03;;;-1.92;79.09
66385;BME280;53426;55.872;37.462;2023-01-15T05:46:01;99782.56;;;-1.91;78.99
66385;BME280;53426;55.872;37.462;2023-01-15T05:48:27;99763.88;;;-2.04;78.76
66385;BME280;53426;55.872;37.462;2023-01-15T05:50:53;99754.41;;;-2.05;78.96
66385;BME280;53426;55.872;37.462;2023-01-15T05:53:20;99756.97;;;-2.03;79.17
66385;BME280;53426;55.872;37.462;2023-01-15T05:56:08;99760.25;;;-1.98;79.29
66385;BME280;53426;55.872;37.462;2023-01-15T05:58:34;99763.59;;;-1.95;79.00
66385;BME280;53426;55.872;37.462;2023-01-15T06:01:05;99766.38;;;-2.01;79.04
66385;BME280;53426;55.872;37.462;2023-01-15T06:03:31;99763.94;;;-2.05;79.50
66385;BME280;53426;55.872;37.462;2023-01-15T06:05:57;99769.16;;;-2.07;79.39
66385;BME280;53426;55.872;37.462;2023-01-15T06:08:23;99763.00;;;-2.03;79.21
66385;BME280;53426;55.872;37.462;2023-01-15T06:10:49;99765.50;;;-2.00;79.39
66385;BME280;53426;55.872;37.462;2023-01-15T06:13:16;99770.00;;;-2.06;79.06
66385;BME280;53426;55.872;37.462;2023-01-15T06:15:54;99770.81;;;-2.04;79.01
66385;BME280;53426;55.872;37.462;2023-01-15T06:18:24;99778.44;;;-1.98;78.52
66385;BME280;53426;55.872;37.462;2023-01-15T06:20:50;99768.06;;;-1.98;78.02
66385;BME280;53426;55.872;37.462;2023-01-15T06:23:17;99786.66;;;-1.84;78.13
66385;BME280;53426;55.872;37.462;2023-01-15T06:26:04;99763.44;;;-1.89;77.71
66385;BME280;53426;55.872;37.462;2023-01-15T06:28:38;99754.97;;;-1.95;77.50
66385;BME280;53426;55.872;37.462;2023-01-15T06:31:08;99795.03;;;-1.75;77.74
66385;BME280;53426;55.872;37.462;2023-01-15T06:33:38;99802.00;;;-1.77;77.40
66385;BME280;53426;55.872;37.462;2023-01-15T06:36:07;99809.69;;;-1.74;77.47
66385;BME280;53426;55.872;37.462;2023-01-15T06:38:35;99785.34;;;-1.70;77.54
66385;BME280;53426;55.872;37.462;2023-01-15T06:41:03;99806.53;;;-1.55;77.21
66385;BME280;53426;55.872;37.462;2023-01-15T06:43:49;99796.34;;;-1.61;76.67
66385;BME280;53426;55.872;37.462;2023-01-15T06:46:33;99781.50;;;-1.58;76.82
66385;BME280;53426;55.872;37.462;2023-01-15T06:49:20;99781.72;;;-1.64;76.74
66385;BME280;53426;55.872;37.462;2023-01-15T06:51:46;99761.41;;;-1.79;76.73
66385;BME280;53426;55.872;37.462;2023-01-15T06:54:43;99793.06;;;-1.68;77.30
66385;BME280;53426;55.872;37.462;2023-01-15T06:57:31;99770.19;;;-1.83;77.12
66385;BME280;53426;55.872;37.462;2023-01-15T06:59:59;99771.72;;;-1.76;77.30
66385;BME280;53426;55.872;37.462;2023-01-15T07:02:26;99790.47;;;-1.68;77.35
66385;BME280;53426;55.872;37.462;2023-01-15T07:05:06;99785.38;;;-1.71;77.19
66385;BME280;53426;55.872;37.462;2023-01-15T07:07:38;99788.97;;;-1.75;77.07
66385;BME280;53426;55.872;37.462;2023-01-15T07:10:04;99790.53;;;-1.70;76.74
66385;BME280;53426;55.872;37.462;2023-01-15T07:12:30;99804.16;;;-1.63;76.81
66385;BME280;53426;55.872;37.462;2023-01-15T07:14:56;99806.72;;;-1.61;76.72
66385;BME280;53426;55.872;37.462;2023-01-15T07:17:22;99789.69;;;-1.70;76.81
66385;BME280;53426;55.872;37.462;2023-01-15T07:19:47;99799.78;;;-1.61;76.15
66385;BME280;53426;55.872;37.462;2023-01-15T07:22:13;99793.78;;;-1.63;76.29
66385;BME280;53426;55.872;37.462;2023-01-15T07:24:42;99783.28;;;-1.58;76.17
66385;BME280;53426;55.872;37.462;2023-01-15T07:27:08;99801.25;;;-1.52;75.90
66385;BME280;53426;55.872;37.462;2023-01-15T07:29:34;99777.28;;;-1.60;76.02
66385;BME280;53426;55.872;37.462;2023-01-15T07:32:00;99791.00;;;-1.57;75.87
66385;BME280;53426;55.872;37.462;2023-01-15T07:34:26;99786.09;;;-1.66;76.23
66385;BME280;53426;55.872;37.462;2023-01-15T07:40:09;99778.13;;;-1.60;76.30
66385;BME280;53426;55.872;37.462;2023-01-15T07:42:36;99795.13;;;-1.50;76.13
66385;BME280;53426;55.872;37.462;2023-01-15T07:45:20;99778.91;;;-1.58;75.78
66385;BME280;53426;55.872;37.462;2023-01-15T07:48:08;99774.44;;;-1.53;75.94
66385;BME280;53426;55.872;37.462;2023-01-15T07:50:53;99796.00;;;-1.51;76.23
66385;BME280;53426;55.872;37.462;2023-01-15T07:53:19;99781.44;;;-1.55;75.78
66385;BME280;53426;55.872;37.462;2023-01-15T07:55:45;99779.75;;;-1.57;75.91
66385;BME280;53426;55.872;37.462;2023-01-15T07:58:11;99766.22;;;-1.67;75.53
66385;BME280;53426;55.872;37.462;2023-01-15T08:00:37;99783.03;;;-1.51;75.59
66385;BME280;53426;55.872;37.462;2023-01-15T08:03:02;99778.78;;;-1.53;75.82
66385;BME280;53426;55.872;37.462;2023-01-15T08:05:28;99778.56;;;-1.47;75.72
66385;BME280;53426;55.872;37.462;2023-01-15T08:07:54;99785.47;;;-1.46;75.17
66385;BME280;53426;55.872;37.462;2023-01-15T08:10:21;99786.13;;;-1.40;75.36
66385;BME280;53426;55.872;37.462;2023-01-15T08:12:48;99763.97;;;-1.50;75.16
66385;BME280;53426;55.872;37.462;2023-01-15T08:15:37;99780.94;;;-1.40;75.02
66385;BME280;53426;55.872;37.462;2023-01-15T08:18:04;99792.91;;;-1.36;74.79
66385;BME280;53426;55.872;37.462;2023-01-15T08:20:30;99786.88;;;-1.36;74.92
66385;BME280;53426;55.872;37.462;2023-01-15T08:22:56;99788.06;;;-1.46;74.83
66385;BME280;53426;55.872;37.462;2023-01-15T08:25:23;99778.38;;;-1.41;74.93
66385;BME280;53426;55.872;37.462;2023-01-15T08:27:50;99794.75;;;-1.38;74.79
66385;BME280;53426;55.872;37.462;2023-01-15T08:30:18;99792.06;;;-1.36;74.56
66385;BME280;53426;55.872;37.462;2023-01-15T08:32:44;99780.25;;;-1.45;74.72
66385;BME280;53426;55.872;37.462;2023-01-15T08:35:12;99792.72;;;-1.30;74.66
66385;BME280;53426;55.872;37.462;2023-01-15T08:37:42;99793.59;;;-1.29;74.54
66385;BME280;53426;55.872;37.462;2023-01-15T08:40:09;99803.75;;;-1.21;74.66
66385;BME280;53426;55.872;37.462;2023-01-15T08:42:35;99771.38;;;-1.38;74.26
66385;BME280;53426;55.872;37.462;2023-01-15T08:45:01;99791.00;;;-1.29;74.38
66385;BME280;53426;55.872;37.462;2023-01-15T08:47:29;99792.72;;;-1.30;74.47
66385;BME280;53426;55.872;37.462;2023-01-15T08:49:56;99783.84;;;-1.22;73.95
66385;BME280;53426;55.872;37.462;2023-01-15T08:52:22;99794.44;;;-1.29;74.15
66385;BME280;53426;55.872;37.462;2023-01-15T08:54:48;99786.75;;;-1.32;74.30
66385;BME280;53426;55.872;37.462;2023-01-15T08:57:14;99781.59;;;-1.33;74.04
66385;BME280;53426;55.872;37.462;2023-01-15T08:59:39;99780.56;;;-1.28;74.53
66385;BME280;53426;55.872;37.462;2023-01-15T09:02:10;99754.16;;;-1.42;73.96
66385;BME280;53426;55.872;37.462;2023-01-15T09:04:37;99780.50;;;-1.26;73.72
66385;BME280;53426;55.872;37.462;2023-01-15T09:07:03;99766.84;;;-1.31;73.94
66385;BME280;53426;55.872;37.462;2023-01-15T09:09:54;99768.06;;;-1.16;73.69
66385;BME280;53426;55.872;37.462;2023-01-15T09:12:21;99759.84;;;-1.31;73.79
66385;BME280;53426;55.872;37.462;2023-01-15T09:14:49;99769.28;;;-1.27;73.76
66385;BME280;53426;55.872;37.462;2023-01-15T09:17:15;99757.06;;;-1.24;74.20
66385;BME280;53426;55.872;37.462;2023-01-15T09:19:44;99749.69;;;-1.37;73.58
66385;BME280;53426;55.872;37.462;2023-01-15T09:22:10;99748.53;;;-1.28;73.72
66385;BME280;53426;55.872;37.462;2023-01-15T09:24:36;99761.28;;;-1.20;73.32
66385;BME280;53426;55.872;37.462;2023-01-15T09:27:02;99759.25;;;-1.12;73.33
66385;BME280;53426;55.872;37.462;2023-01-15T09:29:28;99768.91;;;-1.16;73.19
66385;BME280;53426;55.872;37.462;2023-01-15T09:31:54;99752.28;;;-1.10;73.51
66385;BME280;53426;55.872;37.462;2023-01-15T09:34:20;99755.56;;;-1.05;73.30
66385;BME280;53426;55.872;37.462;2023-01-15T09:36:46;99745.44;;;-1.13;73.02
66385;BME280;53426;55.872;37.462;2023-01-15T09:39:12;99748.69;;;-1.06;73.23
66385;BME280;53426;55.872;37.462;2023-01-15T09:47:49;99755.66;;;-1.08;73.18
66385;BME280;53426;55.872;37.462;2023-01-15T09:53:09;99744.56;;;-1.13;73.05
66385;BME280;53426;55.872;37.462;2023-01-15T09:55:46;99757.56;;;-1.13;73.44
66385;BME280;53426;55.872;37.462;2023-01-15T09:58:14;99744.00;;;-1.21;73.13
66385;BME280;53426;55.872;37.462;2023-01-15T10:00:46;99754.88;;;-1.10;72.83
66385;BME280;53426;55.872;37.462;2023-01-15T10:03:30;99745.69;;;-1.20;73.28
66385;BME280;53426;55.872;37.462;2023-01-15T10:08:37;99736.13;;;-1.20;72.98
66385;BME280;53426;55.872;37.462;2023-01-15T10:11:20;99760.16;;;-1.13;73.10
66385;BME280;53426;55.872;37.462;2023-01-15T10:13:55;99707.53;;;-1.45;73.25
66385;BME280;53426;55.872;37.462;2023-01-15T10:16:47;99743.88;;;-1.18;72.93
66385;BME280;53426;55.872;37.462;2023-01-15T10:19:22;99745.25;;;-1.08;72.87
66385;BME280;53426;55.872;37.462;2023-01-15T10:21:57;99764.06;;;-1.00;72.67
66385;BME280;53426;55.872;37.462;2023-01-15T10:24:37;99743.69;;;-1.12;72.50
66385;BME280;53426;55.872;37.462;2023-01-15T10:27:25;99763.41;;;-1.07;72.98
66385;BME280;53426;55.872;37.462;2023-01-15T10:30:05;99744.50;;;-1.10;72.64
66385;BME280;53426;55.872;37.462;2023-01-15T10:32:51;99741.00;;;-1.09;72.97
66385;BME280;53426;55.872;37.462;2023-01-15T10:35:26;99728.03;;;-1.11;73.00
66385;BME280;53426;55.872;37.462;2023-01-15T10:43:41;99723.63;;;-1.09;72.68
66385;BME280;53426;55.872;37.462;2023-01-15T10:46:12;99718.53;;;-1.12;72.42
66385;BME280;53426;55.872;37.462;2023-01-15T10:48:43;99706.56;;;-1.16;72.77
66385;BME280;53426;55.872;37.462;2023-01-15T10:51:38;99722.81;;;-1.09;72.82
66385;BME280;53426;55.872;37.462;2023-01-15T10:54:16;99687.13;;;-1.31;72.74
66385;BME280;53426;55.872;37.462;2023-01-15T10:59:55;99703.69;;;-1.08;72.56
66385;BME280;53426;55.872;37.462;2023-01-15T11:02:33;99716.63;;;-1.07;72.92
66385;BME280;53426;55.872;37.462;2023-01-15T11:05:05;99717.63;;;-1.09;72.46
66385;BME280;53426;55.872;37.462;2023-01-15T11:07:40;99711.75;;;-1.16;72.66
66385;BME280;53426;55.872;37.462;2023-01-15T11:10:09;99693.47;;;-1.13;72.67
66385;BME280;53426;55.872;37.462;2023-01-15T11:12:47;99700.00;;;-1.01;72.63
66385;BME280;53426;55.872;37.462;2023-01-15T11:15:34;99709.81;;;-1.09;72.28
66385;BME280;53426;55.872;37.462;2023-01-15T11:18:29;99690.63;;;-1.05;72.35
66385;BME280;53426;55.872;37.462;2023-01-15T11:21:18;99702.75;;;-1.06;71.97
66385;BME280;53426;55.872;37.462;2023-01-15T11:23:45;99683.91;;;-1.12;71.94
66385;BME280;53426;55.872;37.462;2023-01-15T11:26:22;99685.38;;;-1.04;72.06
66385;BME280;53426;55.872;37.462;2023-01-15T11:28:54;99682.81;;;-1.05;71.74
66385;BME280;53426;55.872;37.462;2023-01-15T11:31:21;99682.59;;;-0.99;72.03
66385;BME280;53426;55.872;37.462;2023-01-15T11:34:00;99689.44;;;-0.97;71.79
66385;BME280;53426;55.872;37.462;2023-01-15T11:36:31;99675.59;;;-0.97;71.69
66385;BME280;53426;55.872;37.462;2023-01-15T11:38:59;99669.31;;;-0.92;71.93
66385;BME280;53426;55.872;37.462;2023-01-15T11:41:45;99671.28;;;-0.73;71.69
66385;BME280;53426;55.872;37.462;2023-01-15T11:45:14;99666.97;;;-0.74;71.58
66385;BME280;53426;55.872;37.462;2023-01-15T11:48:23;99668.94;;;-0.81;71.14
66385;BME280;53426;55.872;37.462;2023-01-15T11:51:09;99664.44;;;-0.76;71.28
66385;BME280;53426;55.872;37.462;2023-01-15T11:53:48;99660.06;;;-0.75;70.92
66385;BME280;53426;55.872;37.462;2023-01-15T11:56:22;99663.66;;;-0.78;71.27
66385;BME280;53426;55.872;37.462;2023-01-15T11:58:52;99657.69;;;-0.81;70.87
66385;BME280;53426;55.872;37.462;2023-01-15T12:07:16;99668.72;;;-0.75;70.39
66385;BME280;53426;55.872;37.462;2023-01-15T12:19:00;99672.69;;;-0.65;70.44
66385;BME280;53426;55.872;37.462;2023-01-15T12:21:51;99665.28;;;-0.75;70.29
66385;BME280;53426;55.872;37.462;2023-01-15T12:25:33;99673.75;;;-0.70;70.79
66385;BME280;53426;55.872;37.462;2023-01-15T12:30:23;99668.56;;;-0.70;70.45
66385;BME280;53426;55.872;37.462;2023-01-15T12:32:53;99668.47;;;-0.67;70.16
66385;BME280;53426;55.872;37.462;2023-01-15T12:35:34;99659.13;;;-0.73;70.26
66385;BME280;53426;55.872;37.462;2023-01-15T12:38:17;99657.56;;;-0.77;70.10
66385;BME280;53426;55.872;37.462;2023-01-15T12:40:56;99646.22;;;-0.99;69.89
66385;BME280;53426;55.872;37.462;2023-01-15T12:43:26;99641.94;;;-1.00;70.52
66385;BME280;53426;55.872;37.462;2023-01-15T12:46:24;99653.34;;;-0.81;70.27
66385;BME280;53426;55.872;37.462;2023-01-15T12:51:52;99679.72;;;-0.67;69.98
66385;BME280;53426;55.872;37.462;2023-01-15T12:54:28;99692.03;;;-0.72;69.91
66385;BME280;53426;55.872;37.462;2023-01-15T12:57:12;99687.25;;;-0.84;70.18
66385;BME280;53426;55.872;37.462;2023-01-15T13:00:14;99685.47;;;-0.82;70.06
66385;BME280;53426;55.872;37.462;2023-01-15T13:08:09;99707.25;;;-0.86;70.07
66385;BME280;53426;55.872;37.462;2023-01-15T13:14:26;99696.09;;;-0.88;69.93
66385;BME280;53426;55.872;37.462;2023-01-15T13:19:48;99704.66;;;-0.86;70.59
66385;BME280;53426;55.872;37.462;2023-01-15T13:22:23;99698.94;;;-0.96;70.14
66385;BME280;53426;55.872;37.462;2023-01-15T13:27:44;99703.06;;;-0.90;70.24
66385;BME280;53426;55.872;37.462;2023-01-15T13:30:49;99693.63;;;-0.93;69.99
66385;BME280;53426;55.872;37.462;2023-01-15T13:36:19;99711.97;;;-0.97;69.81
66385;BME280;53426;55.872;37.462;2023-01-15T13:38:53;99709.22;;;-0.93;69.55
66385;BME280;53426;55.872;37.462;2023-01-15T13:41:23;99695.91;;;-1.08;70.04
66385;BME280;53426;55.872;37.462;2023-01-15T13:44:31;99713.63;;;-0.95;69.75
66385;BME280;53426;55.872;37.462;2023-01-15T13:47:05;99693.41;;;-1.11;69.74
66385;BME280;53426;55.872;37.462;2023-01-15T13:49:35;99710.56;;;-1.06;70.26
66385;BME280;53426;55.872;37.462;2023-01-15T13:52:06;99701.06;;;-1.07;69.50
66385;BME280;53426;55.872;37.462;2023-01-15T13:54:35;99702.53;;;-1.00;69.76
66385;BME280;53426;55.872;37.462;2023-01-15T13:57:18;99716.97;;;-0.91;70.28
66385;BME280;53426;55.872;37.462;2023-01-15T13:59:45;99718.47;;;-0.84;70.02
66385;BME280;53426;55.872;37.462;2023-01-15T14:02:31;99708.16;;;-0.87;69.71
66385;BME280;53426;55.872;37.462;2023-01-15T14:05:00;99709.16;;;-0.91;69.60
66385;BME280;53426;55.872;37.462;2023-01-15T14:07:37;99704.13;;;-0.96;69.25
66385;BME280;53426;55.872;37.462;2023-01-15T14:10:23;99717.84;;;-0.92;69.80
66385;BME280;53426;55.872;37.462;2023-01-15T14:13:18;99701.28;;;-0.88;69.40
66385;BME280;53426;55.872;37.462;2023-01-15T14:16:16;99708.06;;;-0.84;69.60
66385;BME280;53426;55.872;37.462;2023-01-15T14:37:25;99696.59;;;-1.03;69.10
66385;BME280;53426;55.872;37.462;2023-01-15T14:40:00;99688.38;;;-1.16;69.52
66385;BME280;53426;55.872;37.462;2023-01-15T14:42:34;99708.81;;;-1.05;69.32
66385;BME280;53426;55.872;37.462;2023-01-15T14:45:33;99694.16;;;-1.08;69.46
66385;BME280;53426;55.872;37.462;2023-01-15T14:48:05;99686.53;;;-1.12;69.10
66385;BME280;53426;55.872;37.462;2023-01-15T14:50:41;99669.34;;;-1.16;69.19
66385;BME280;53426;55.872;37.462;2023-01-15T14:58:43;99680.44;;;-1.11;68.91
66385;BME280;53426;55.872;37.462;2023-01-15T15:01:16;99675.91;;;-1.06;69.23
66385;BME280;53426;55.872;37.462;2023-01-15T15:06:52;99663.84;;;-1.32;68.72
66385;BME280;53426;55.872;37.462;2023-01-15T15:09:40;99671.47;;;-1.28;69.30
66385;BME280;53426;55.872;37.462;2023-01-15T15:12:16;99671.19;;;-1.20;69.14
66385;BME280;53426;55.872;37.462;2023-01-15T15:14:58;99655.84;;;-1.26;69.13
66385;BME280;53426;55.872;37.462;2023-01-15T15:17:34;99659.47;;;-1.32;69.45
66385;BME280;53426;55.872;37.462;2023-01-15T15:20:21;99670.66;;;-1.30;69.02
66385;BME280;53426;55.872;37.462;2023-01-15T15:22:55;99603.91;;;-1.52;69.10
66385;BME280;53426;55.872;37.462;2023-01-15T15:25:29;99648.03;;;-1.26;69.13